<?xml version="1.0" encoding="UTF-8" standalone="no" ?><gpx xmlns="http://www.topografix.com/GPX/1/1" xmlns:gpxx="http://www.garmin.com/xmlschemas/GpxExtensions/v3" xmlns:gpxtpx="http://www.garmin.com/xmlschemas/TrackPointExtension/v1" creator="Foretrex 301" version="1.1" xmlns:xsi="http://www.w3.org/2001/XMLSchema-instance" xsi:schemaLocation="http://www.topografix.com/GPX/1/1 http://www.topografix.com/GPX/1/1/gpx.xsd http://www.garmin.com/xmlschemas/GpxExtensions/v3 http://www.garmin.com/xmlschemas/GpxExtensions/v3/GpxExtensionsv3.xsd"><metadata><link href="http://www.garmin.com"><text>Garmin International</text></link><time>2010-09-08T17:00:41Z</time></metadata><trk><name>ACTIVE LOG: 08 SEP 2010 09:45</name><trkseg><trkpt lat="51.822013" lon="-2.084506"><ele>244.79</ele><time>2010-09-08T08:45:34Z</time></trkpt><trkpt lat="51.821959" lon="-2.084554"><ele>245.75</ele><time>2010-09-08T08:46:12Z</time></trkpt><trkpt lat="51.821987" lon="-2.084588"><ele>247.20</ele><time>2010-09-08T08:47:08Z</time></trkpt><trkpt lat="51.822022" lon="-2.084598"><ele>248.16</ele><time>2010-09-08T08:47:48Z</time></trkpt><trkpt lat="51.822031" lon="-2.084544"><ele>250.08</ele><time>2010-09-08T08:49:35Z</time></trkpt><trkpt lat="51.822049" lon="-2.084260"><ele>253.93</ele><time>2010-09-08T08:53:42Z</time></trkpt><trkpt lat="51.822046" lon="-2.084227"><ele>253.93</ele><time>2010-09-08T08:53:44Z</time></trkpt><trkpt lat="51.822085" lon="-2.083950"><ele>251.04</ele><time>2010-09-08T08:54:03Z</time></trkpt><trkpt lat="51.822081" lon="-2.083690"><ele>252.00</ele><time>2010-09-08T08:54:19Z</time></trkpt><trkpt lat="51.822143" lon="-2.083638"><ele>254.89</ele><time>2010-09-08T08:54:24Z</time></trkpt><trkpt lat="51.821979" lon="-2.083525"><ele>254.41</ele><time>2010-09-08T08:54:42Z</time></trkpt><trkpt lat="51.821940" lon="-2.083511"><ele>253.93</ele><time>2010-09-08T08:55:00Z</time></trkpt><trkpt lat="51.821935" lon="-2.083453"><ele>253.44</ele><time>2010-09-08T08:55:08Z</time></trkpt><trkpt lat="51.821852" lon="-2.083439"><ele>252.96</ele><time>2010-09-08T08:55:15Z</time></trkpt><trkpt lat="51.821717" lon="-2.083549"><ele>252.96</ele><time>2010-09-08T08:55:31Z</time></trkpt><trkpt lat="51.821607" lon="-2.083540"><ele>251.52</ele><time>2010-09-08T08:55:47Z</time></trkpt><trkpt lat="51.821460" lon="-2.083601"><ele>251.52</ele><time>2010-09-08T08:56:04Z</time></trkpt><trkpt lat="51.821284" lon="-2.083588"><ele>252.48</ele><time>2010-09-08T08:56:20Z</time></trkpt><trkpt lat="51.821154" lon="-2.083594"><ele>252.00</ele><time>2010-09-08T08:56:31Z</time></trkpt><trkpt lat="51.821059" lon="-2.083591"><ele>252.00</ele><time>2010-09-08T08:56:40Z</time></trkpt><trkpt lat="51.820991" lon="-2.083599"><ele>251.04</ele><time>2010-09-08T08:56:47Z</time></trkpt><trkpt lat="51.820961" lon="-2.083600"><ele>250.56</ele><time>2010-09-08T08:56:50Z</time></trkpt><trkpt lat="51.820811" lon="-2.083604"><ele>249.12</ele><time>2010-09-08T08:57:05Z</time></trkpt><trkpt lat="51.820647" lon="-2.083632"><ele>248.16</ele><time>2010-09-08T08:57:22Z</time></trkpt><trkpt lat="51.820472" lon="-2.083715"><ele>250.56</ele><time>2010-09-08T08:57:40Z</time></trkpt><trkpt lat="51.820416" lon="-2.083776"><ele>251.52</ele><time>2010-09-08T08:57:48Z</time></trkpt><trkpt lat="51.820301" lon="-2.083910"><ele>251.52</ele><time>2010-09-08T08:58:03Z</time></trkpt><trkpt lat="51.820226" lon="-2.084103"><ele>252.48</ele><time>2010-09-08T08:58:19Z</time></trkpt><trkpt lat="51.820148" lon="-2.084262"><ele>252.48</ele><time>2010-09-08T08:58:33Z</time></trkpt><trkpt lat="51.820042" lon="-2.084380"><ele>251.52</ele><time>2010-09-08T08:58:48Z</time></trkpt><trkpt lat="51.820012" lon="-2.084402"><ele>251.04</ele><time>2010-09-08T08:58:52Z</time></trkpt><trkpt lat="51.819958" lon="-2.084391"><ele>249.12</ele><time>2010-09-08T08:59:05Z</time></trkpt><trkpt lat="51.819801" lon="-2.084426"><ele>247.20</ele><time>2010-09-08T08:59:22Z</time></trkpt><trkpt lat="51.819673" lon="-2.084449"><ele>246.72</ele><time>2010-09-08T08:59:35Z</time></trkpt><trkpt lat="51.819522" lon="-2.084503"><ele>247.20</ele><time>2010-09-08T08:59:52Z</time></trkpt><trkpt lat="51.819379" lon="-2.084522"><ele>246.72</ele><time>2010-09-08T09:00:07Z</time></trkpt><trkpt lat="51.819232" lon="-2.084549"><ele>244.79</ele><time>2010-09-08T09:00:23Z</time></trkpt><trkpt lat="51.819091" lon="-2.084581"><ele>244.31</ele><time>2010-09-08T09:00:38Z</time></trkpt><trkpt lat="51.818948" lon="-2.084665"><ele>243.35</ele><time>2010-09-08T09:00:53Z</time></trkpt><trkpt lat="51.818815" lon="-2.084690"><ele>240.47</ele><time>2010-09-08T09:01:11Z</time></trkpt><trkpt lat="51.818684" lon="-2.084723"><ele>238.06</ele><time>2010-09-08T09:01:26Z</time></trkpt><trkpt lat="51.818657" lon="-2.084741"><ele>237.58</ele><time>2010-09-08T09:01:29Z</time></trkpt><trkpt lat="51.818623" lon="-2.084758"><ele>237.58</ele><time>2010-09-08T09:01:33Z</time></trkpt><trkpt lat="51.818498" lon="-2.084790"><ele>235.18</ele><time>2010-09-08T09:01:48Z</time></trkpt><trkpt lat="51.818364" lon="-2.084839"><ele>231.33</ele><time>2010-09-08T09:02:03Z</time></trkpt><trkpt lat="51.818222" lon="-2.084906"><ele>230.37</ele><time>2010-09-08T09:02:20Z</time></trkpt><trkpt lat="51.818066" lon="-2.084988"><ele>228.45</ele><time>2010-09-08T09:02:38Z</time></trkpt><trkpt lat="51.817913" lon="-2.085032"><ele>227.97</ele><time>2010-09-08T09:02:55Z</time></trkpt><trkpt lat="51.817772" lon="-2.084927"><ele>228.45</ele><time>2010-09-08T09:03:11Z</time></trkpt><trkpt lat="51.817645" lon="-2.084777"><ele>228.93</ele><time>2010-09-08T09:03:27Z</time></trkpt><trkpt lat="51.817561" lon="-2.084584"><ele>229.89</ele><time>2010-09-08T09:03:42Z</time></trkpt><trkpt lat="51.817480" lon="-2.084366"><ele>233.26</ele><time>2010-09-08T09:03:59Z</time></trkpt><trkpt lat="51.817431" lon="-2.084154"><ele>240.47</ele><time>2010-09-08T09:04:15Z</time></trkpt><trkpt lat="51.817330" lon="-2.083966"><ele>242.87</ele><time>2010-09-08T09:04:32Z</time></trkpt><trkpt lat="51.817230" lon="-2.083855"><ele>243.83</ele><time>2010-09-08T09:04:44Z</time></trkpt><trkpt lat="51.817158" lon="-2.083855"><ele>243.35</ele><time>2010-09-08T09:05:00Z</time></trkpt><trkpt lat="51.817102" lon="-2.083866"><ele>241.91</ele><time>2010-09-08T09:05:14Z</time></trkpt><trkpt lat="51.817064" lon="-2.083893"><ele>242.87</ele><time>2010-09-08T09:05:32Z</time></trkpt><trkpt lat="51.817095" lon="-2.084080"><ele>243.83</ele><time>2010-09-08T09:05:44Z</time></trkpt><trkpt lat="51.817110" lon="-2.084367"><ele>245.27</ele><time>2010-09-08T09:06:02Z</time></trkpt><trkpt lat="51.817048" lon="-2.084588"><ele>246.23</ele><time>2010-09-08T09:06:24Z</time></trkpt><trkpt lat="51.817017" lon="-2.084866"><ele>250.08</ele><time>2010-09-08T09:06:47Z</time></trkpt><trkpt lat="51.816978" lon="-2.085023"><ele>252.96</ele><time>2010-09-08T09:07:03Z</time></trkpt><trkpt lat="51.816933" lon="-2.085110"><ele>254.41</ele><time>2010-09-08T09:07:25Z</time></trkpt><trkpt lat="51.816823" lon="-2.085104"><ele>258.25</ele><time>2010-09-08T09:07:40Z</time></trkpt><trkpt lat="51.816761" lon="-2.085075"><ele>258.73</ele><time>2010-09-08T09:07:51Z</time></trkpt><trkpt lat="51.816637" lon="-2.085060"><ele>259.69</ele><time>2010-09-08T09:08:04Z</time></trkpt><trkpt lat="51.816517" lon="-2.085107"><ele>260.17</ele><time>2010-09-08T09:08:19Z</time></trkpt><trkpt lat="51.816398" lon="-2.085177"><ele>261.14</ele><time>2010-09-08T09:08:34Z</time></trkpt><trkpt lat="51.816292" lon="-2.085245"><ele>262.10</ele><time>2010-09-08T09:08:53Z</time></trkpt><trkpt lat="51.816136" lon="-2.085442"><ele>263.54</ele><time>2010-09-08T09:09:11Z</time></trkpt><trkpt lat="51.816050" lon="-2.085655"><ele>263.06</ele><time>2010-09-08T09:09:24Z</time></trkpt><trkpt lat="51.815990" lon="-2.085875"><ele>257.29</ele><time>2010-09-08T09:09:37Z</time></trkpt><trkpt lat="51.815944" lon="-2.086027"><ele>255.85</ele><time>2010-09-08T09:09:48Z</time></trkpt><trkpt lat="51.815886" lon="-2.086247"><ele>262.58</ele><time>2010-09-08T09:10:05Z</time></trkpt><trkpt lat="51.815852" lon="-2.086386"><ele>263.06</ele><time>2010-09-08T09:10:15Z</time></trkpt><trkpt lat="51.815832" lon="-2.086632"><ele>261.14</ele><time>2010-09-08T09:10:29Z</time></trkpt><trkpt lat="51.815813" lon="-2.086881"><ele>264.02</ele><time>2010-09-08T09:10:43Z</time></trkpt><trkpt lat="51.815761" lon="-2.087005"><ele>265.94</ele><time>2010-09-08T09:10:54Z</time></trkpt><trkpt lat="51.815720" lon="-2.087185"><ele>270.27</ele><time>2010-09-08T09:11:07Z</time></trkpt><trkpt lat="51.815703" lon="-2.087377"><ele>269.31</ele><time>2010-09-08T09:11:18Z</time></trkpt><trkpt lat="51.815697" lon="-2.087413"><ele>269.31</ele><time>2010-09-08T09:11:21Z</time></trkpt><trkpt lat="51.815691" lon="-2.087466"><ele>269.31</ele><time>2010-09-08T09:11:25Z</time></trkpt><trkpt lat="51.815656" lon="-2.087647"><ele>269.79</ele><time>2010-09-08T09:11:40Z</time></trkpt><trkpt lat="51.815612" lon="-2.087836"><ele>270.27</ele><time>2010-09-08T09:11:53Z</time></trkpt><trkpt lat="51.815516" lon="-2.087989"><ele>269.79</ele><time>2010-09-08T09:12:11Z</time></trkpt><trkpt lat="51.815506" lon="-2.088056"><ele>270.27</ele><time>2010-09-08T09:12:17Z</time></trkpt><trkpt lat="51.815607" lon="-2.088185"><ele>270.75</ele><time>2010-09-08T09:12:31Z</time></trkpt><trkpt lat="51.815689" lon="-2.088247"><ele>271.23</ele><time>2010-09-08T09:12:44Z</time></trkpt><trkpt lat="51.815777" lon="-2.088291"><ele>270.27</ele><time>2010-09-08T09:12:56Z</time></trkpt><trkpt lat="51.815890" lon="-2.088327"><ele>267.86</ele><time>2010-09-08T09:13:10Z</time></trkpt><trkpt lat="51.816007" lon="-2.088393"><ele>266.90</ele><time>2010-09-08T09:13:23Z</time></trkpt><trkpt lat="51.816142" lon="-2.088464"><ele>266.90</ele><time>2010-09-08T09:13:38Z</time></trkpt><trkpt lat="51.816254" lon="-2.088513"><ele>266.42</ele><time>2010-09-08T09:13:52Z</time></trkpt><trkpt lat="51.816350" lon="-2.088562"><ele>266.42</ele><time>2010-09-08T09:14:05Z</time></trkpt><trkpt lat="51.816399" lon="-2.088588"><ele>264.02</ele><time>2010-09-08T09:14:20Z</time></trkpt><trkpt lat="51.816468" lon="-2.088596"><ele>262.58</ele><time>2010-09-08T09:14:30Z</time></trkpt><trkpt lat="51.816556" lon="-2.088701"><ele>263.54</ele><time>2010-09-08T09:14:45Z</time></trkpt><trkpt lat="51.816572" lon="-2.088711"><ele>264.98</ele><time>2010-09-08T09:15:01Z</time></trkpt><trkpt lat="51.816574" lon="-2.088716"><ele>264.98</ele><time>2010-09-08T09:15:40Z</time></trkpt><trkpt lat="51.816578" lon="-2.088812"><ele>264.02</ele><time>2010-09-08T09:15:59Z</time></trkpt><trkpt lat="51.816591" lon="-2.089004"><ele>262.58</ele><time>2010-09-08T09:16:13Z</time></trkpt><trkpt lat="51.816622" lon="-2.089182"><ele>262.10</ele><time>2010-09-08T09:16:26Z</time></trkpt><trkpt lat="51.816629" lon="-2.089410"><ele>261.62</ele><time>2010-09-08T09:16:40Z</time></trkpt><trkpt lat="51.816620" lon="-2.089569"><ele>260.65</ele><time>2010-09-08T09:16:54Z</time></trkpt><trkpt lat="51.816617" lon="-2.089577"><ele>260.65</ele><time>2010-09-08T09:16:55Z</time></trkpt><trkpt lat="51.816683" lon="-2.089774"><ele>256.81</ele><time>2010-09-08T09:17:11Z</time></trkpt><trkpt lat="51.816716" lon="-2.089932"><ele>252.96</ele><time>2010-09-08T09:17:26Z</time></trkpt><trkpt lat="51.816732" lon="-2.090023"><ele>251.04</ele><time>2010-09-08T09:17:38Z</time></trkpt><trkpt lat="51.816783" lon="-2.090163"><ele>249.12</ele><time>2010-09-08T09:17:55Z</time></trkpt><trkpt lat="51.816855" lon="-2.090333"><ele>247.20</ele><time>2010-09-08T09:18:09Z</time></trkpt><trkpt lat="51.816945" lon="-2.090385"><ele>249.60</ele><time>2010-09-08T09:18:22Z</time></trkpt><trkpt lat="51.817048" lon="-2.090362"><ele>250.56</ele><time>2010-09-08T09:18:37Z</time></trkpt><trkpt lat="51.817134" lon="-2.090374"><ele>252.48</ele><time>2010-09-08T09:18:48Z</time></trkpt><trkpt lat="51.817241" lon="-2.090369"><ele>251.04</ele><time>2010-09-08T09:19:02Z</time></trkpt><trkpt lat="51.817364" lon="-2.090351"><ele>252.96</ele><time>2010-09-08T09:19:16Z</time></trkpt><trkpt lat="51.817542" lon="-2.090237"><ele>249.12</ele><time>2010-09-08T09:19:32Z</time></trkpt><trkpt lat="51.817602" lon="-2.090189"><ele>246.72</ele><time>2010-09-08T09:19:38Z</time></trkpt><trkpt lat="51.817621" lon="-2.090172"><ele>246.23</ele><time>2010-09-08T09:19:40Z</time></trkpt><trkpt lat="51.817689" lon="-2.090096"><ele>242.87</ele><time>2010-09-08T09:19:49Z</time></trkpt><trkpt lat="51.817708" lon="-2.090086"><ele>242.39</ele><time>2010-09-08T09:19:51Z</time></trkpt><trkpt lat="51.817878" lon="-2.090035"><ele>242.39</ele><time>2010-09-08T09:20:07Z</time></trkpt><trkpt lat="51.817900" lon="-2.090023"><ele>242.39</ele><time>2010-09-08T09:20:09Z</time></trkpt><trkpt lat="51.817932" lon="-2.090012"><ele>242.39</ele><time>2010-09-08T09:20:12Z</time></trkpt><trkpt lat="51.818045" lon="-2.089941"><ele>240.95</ele><time>2010-09-08T09:20:27Z</time></trkpt><trkpt lat="51.818073" lon="-2.089929"><ele>241.43</ele><time>2010-09-08T09:20:30Z</time></trkpt><trkpt lat="51.818197" lon="-2.089984"><ele>238.54</ele><time>2010-09-08T09:20:45Z</time></trkpt><trkpt lat="51.818227" lon="-2.090047"><ele>238.06</ele><time>2010-09-08T09:20:58Z</time></trkpt><trkpt lat="51.818255" lon="-2.090099"><ele>239.02</ele><time>2010-09-08T09:21:02Z</time></trkpt><trkpt lat="51.818334" lon="-2.090223"><ele>240.95</ele><time>2010-09-08T09:21:16Z</time></trkpt><trkpt lat="51.818401" lon="-2.090257"><ele>240.95</ele><time>2010-09-08T09:21:25Z</time></trkpt><trkpt lat="51.818480" lon="-2.090290"><ele>240.95</ele><time>2010-09-08T09:21:35Z</time></trkpt><trkpt lat="51.818556" lon="-2.090303"><ele>240.95</ele><time>2010-09-08T09:21:43Z</time></trkpt><trkpt lat="51.818651" lon="-2.090468"><ele>240.95</ele><time>2010-09-08T09:21:59Z</time></trkpt><trkpt lat="51.818728" lon="-2.090722"><ele>240.95</ele><time>2010-09-08T09:22:16Z</time></trkpt><trkpt lat="51.818802" lon="-2.090971"><ele>240.47</ele><time>2010-09-08T09:22:33Z</time></trkpt><trkpt lat="51.818876" lon="-2.091234"><ele>239.99</ele><time>2010-09-08T09:22:49Z</time></trkpt><trkpt lat="51.818917" lon="-2.091342"><ele>238.54</ele><time>2010-09-08T09:23:05Z</time></trkpt><trkpt lat="51.818931" lon="-2.091365"><ele>238.54</ele><time>2010-09-08T09:23:16Z</time></trkpt><trkpt lat="51.818970" lon="-2.091557"><ele>238.06</ele><time>2010-09-08T09:23:32Z</time></trkpt><trkpt lat="51.819019" lon="-2.091787"><ele>238.06</ele><time>2010-09-08T09:23:48Z</time></trkpt><trkpt lat="51.819056" lon="-2.092005"><ele>239.51</ele><time>2010-09-08T09:24:03Z</time></trkpt><trkpt lat="51.819096" lon="-2.092262"><ele>239.99</ele><time>2010-09-08T09:24:19Z</time></trkpt><trkpt lat="51.819123" lon="-2.092412"><ele>240.95</ele><time>2010-09-08T09:24:29Z</time></trkpt><trkpt lat="51.819147" lon="-2.092562"><ele>240.47</ele><time>2010-09-08T09:24:39Z</time></trkpt><trkpt lat="51.819202" lon="-2.092740"><ele>239.99</ele><time>2010-09-08T09:24:54Z</time></trkpt><trkpt lat="51.819260" lon="-2.092773"><ele>239.51</ele><time>2010-09-08T09:25:13Z</time></trkpt><trkpt lat="51.819350" lon="-2.092872"><ele>240.95</ele><time>2010-09-08T09:25:29Z</time></trkpt><trkpt lat="51.819396" lon="-2.093094"><ele>240.47</ele><time>2010-09-08T09:25:45Z</time></trkpt><trkpt lat="51.819469" lon="-2.093303"><ele>239.51</ele><time>2010-09-08T09:26:01Z</time></trkpt><trkpt lat="51.819500" lon="-2.093416"><ele>239.99</ele><time>2010-09-08T09:26:09Z</time></trkpt><trkpt lat="51.819552" lon="-2.093619"><ele>240.47</ele><time>2010-09-08T09:26:23Z</time></trkpt><trkpt lat="51.819589" lon="-2.093826"><ele>239.99</ele><time>2010-09-08T09:26:37Z</time></trkpt><trkpt lat="51.819623" lon="-2.094035"><ele>240.95</ele><time>2010-09-08T09:26:52Z</time></trkpt><trkpt lat="51.819672" lon="-2.094261"><ele>241.43</ele><time>2010-09-08T09:27:08Z</time></trkpt><trkpt lat="51.819717" lon="-2.094493"><ele>241.91</ele><time>2010-09-08T09:27:23Z</time></trkpt><trkpt lat="51.819769" lon="-2.094746"><ele>242.39</ele><time>2010-09-08T09:27:40Z</time></trkpt><trkpt lat="51.819822" lon="-2.095000"><ele>243.35</ele><time>2010-09-08T09:27:57Z</time></trkpt><trkpt lat="51.819874" lon="-2.095219"><ele>244.31</ele><time>2010-09-08T09:28:13Z</time></trkpt><trkpt lat="51.819923" lon="-2.095298"><ele>244.79</ele><time>2010-09-08T09:28:21Z</time></trkpt><trkpt lat="51.820016" lon="-2.095480"><ele>247.20</ele><time>2010-09-08T09:28:37Z</time></trkpt><trkpt lat="51.820090" lon="-2.095626"><ele>249.12</ele><time>2010-09-08T09:28:52Z</time></trkpt><trkpt lat="51.820133" lon="-2.095782"><ele>250.08</ele><time>2010-09-08T09:29:06Z</time></trkpt><trkpt lat="51.820139" lon="-2.095820"><ele>250.08</ele><time>2010-09-08T09:29:09Z</time></trkpt><trkpt lat="51.820157" lon="-2.096056"><ele>249.60</ele><time>2010-09-08T09:29:26Z</time></trkpt><trkpt lat="51.820174" lon="-2.096289"><ele>250.56</ele><time>2010-09-08T09:29:43Z</time></trkpt><trkpt lat="51.820217" lon="-2.096552"><ele>250.56</ele><time>2010-09-08T09:30:00Z</time></trkpt><trkpt lat="51.820265" lon="-2.096768"><ele>251.52</ele><time>2010-09-08T09:30:16Z</time></trkpt><trkpt lat="51.820299" lon="-2.096904"><ele>252.00</ele><time>2010-09-08T09:30:26Z</time></trkpt><trkpt lat="51.820346" lon="-2.097114"><ele>253.93</ele><time>2010-09-08T09:30:42Z</time></trkpt><trkpt lat="51.820378" lon="-2.097384"><ele>255.85</ele><time>2010-09-08T09:31:00Z</time></trkpt><trkpt lat="51.820417" lon="-2.097541"><ele>256.33</ele><time>2010-09-08T09:31:12Z</time></trkpt><trkpt lat="51.820448" lon="-2.097824"><ele>257.29</ele><time>2010-09-08T09:31:31Z</time></trkpt><trkpt lat="51.820467" lon="-2.097881"><ele>256.81</ele><time>2010-09-08T09:31:36Z</time></trkpt><trkpt lat="51.820502" lon="-2.098023"><ele>257.77</ele><time>2010-09-08T09:31:51Z</time></trkpt><trkpt lat="51.820534" lon="-2.098265"><ele>258.25</ele><time>2010-09-08T09:32:09Z</time></trkpt><trkpt lat="51.820558" lon="-2.098519"><ele>258.73</ele><time>2010-09-08T09:32:27Z</time></trkpt><trkpt lat="51.820584" lon="-2.098762"><ele>259.21</ele><time>2010-09-08T09:32:43Z</time></trkpt><trkpt lat="51.820618" lon="-2.098961"><ele>260.65</ele><time>2010-09-08T09:33:00Z</time></trkpt><trkpt lat="51.820622" lon="-2.099116"><ele>260.65</ele><time>2010-09-08T09:33:14Z</time></trkpt><trkpt lat="51.820648" lon="-2.099265"><ele>260.65</ele><time>2010-09-08T09:33:27Z</time></trkpt><trkpt lat="51.820671" lon="-2.099364"><ele>260.17</ele><time>2010-09-08T09:33:39Z</time></trkpt><trkpt lat="51.820676" lon="-2.099401"><ele>259.69</ele><time>2010-09-08T09:34:29Z</time></trkpt><trkpt lat="51.820691" lon="-2.099464"><ele>259.69</ele><time>2010-09-08T09:34:46Z</time></trkpt><trkpt lat="51.820694" lon="-2.099461"><ele>259.69</ele><time>2010-09-08T09:34:48Z</time></trkpt><trkpt lat="51.820688" lon="-2.099403"><ele>258.25</ele><time>2010-09-08T09:35:03Z</time></trkpt><trkpt lat="51.820703" lon="-2.099390"><ele>257.29</ele><time>2010-09-08T09:35:27Z</time></trkpt><trkpt lat="51.820712" lon="-2.099390"><ele>257.29</ele><time>2010-09-08T09:35:30Z</time></trkpt><trkpt lat="51.820780" lon="-2.099420"><ele>258.73</ele><time>2010-09-08T09:35:49Z</time></trkpt><trkpt lat="51.820846" lon="-2.099465"><ele>260.17</ele><time>2010-09-08T09:36:00Z</time></trkpt><trkpt lat="51.820967" lon="-2.099593"><ele>262.58</ele><time>2010-09-08T09:36:19Z</time></trkpt><trkpt lat="51.821109" lon="-2.099716"><ele>264.02</ele><time>2010-09-08T09:36:37Z</time></trkpt><trkpt lat="51.821250" lon="-2.099812"><ele>265.46</ele><time>2010-09-08T09:36:54Z</time></trkpt><trkpt lat="51.821413" lon="-2.099910"><ele>267.86</ele><time>2010-09-08T09:37:12Z</time></trkpt><trkpt lat="51.821540" lon="-2.099937"><ele>268.35</ele><time>2010-09-08T09:37:30Z</time></trkpt><trkpt lat="51.821662" lon="-2.100030"><ele>268.83</ele><time>2010-09-08T09:37:46Z</time></trkpt><trkpt lat="51.821815" lon="-2.100104"><ele>269.79</ele><time>2010-09-08T09:38:02Z</time></trkpt><trkpt lat="51.821988" lon="-2.100153"><ele>270.75</ele><time>2010-09-08T09:38:19Z</time></trkpt><trkpt lat="51.822164" lon="-2.100185"><ele>270.75</ele><time>2010-09-08T09:38:38Z</time></trkpt><trkpt lat="51.822303" lon="-2.100202"><ele>269.31</ele><time>2010-09-08T09:38:52Z</time></trkpt><trkpt lat="51.822438" lon="-2.100238"><ele>268.83</ele><time>2010-09-08T09:39:07Z</time></trkpt><trkpt lat="51.822596" lon="-2.100322"><ele>268.83</ele><time>2010-09-08T09:39:24Z</time></trkpt><trkpt lat="51.822730" lon="-2.100413"><ele>267.86</ele><time>2010-09-08T09:39:38Z</time></trkpt><trkpt lat="51.822960" lon="-2.100548"><ele>265.46</ele><time>2010-09-08T09:40:00Z</time></trkpt><trkpt lat="51.823177" lon="-2.100693"><ele>264.02</ele><time>2010-09-08T09:40:24Z</time></trkpt><trkpt lat="51.823323" lon="-2.100805"><ele>264.50</ele><time>2010-09-08T09:40:41Z</time></trkpt><trkpt lat="51.823479" lon="-2.100946"><ele>265.94</ele><time>2010-09-08T09:40:59Z</time></trkpt><trkpt lat="51.823609" lon="-2.101050"><ele>265.94</ele><time>2010-09-08T09:41:14Z</time></trkpt><trkpt lat="51.823721" lon="-2.101133"><ele>267.38</ele><time>2010-09-08T09:41:27Z</time></trkpt><trkpt lat="51.823875" lon="-2.101263"><ele>268.83</ele><time>2010-09-08T09:41:45Z</time></trkpt><trkpt lat="51.824009" lon="-2.101354"><ele>269.31</ele><time>2010-09-08T09:42:02Z</time></trkpt><trkpt lat="51.824196" lon="-2.101531"><ele>269.79</ele><time>2010-09-08T09:42:26Z</time></trkpt><trkpt lat="51.824353" lon="-2.101609"><ele>271.71</ele><time>2010-09-08T09:42:42Z</time></trkpt><trkpt lat="51.824480" lon="-2.101680"><ele>273.63</ele><time>2010-09-08T09:42:56Z</time></trkpt><trkpt lat="51.824596" lon="-2.101751"><ele>274.59</ele><time>2010-09-08T09:43:15Z</time></trkpt><trkpt lat="51.824627" lon="-2.101775"><ele>275.07</ele><time>2010-09-08T09:43:50Z</time></trkpt><trkpt lat="51.824676" lon="-2.101780"><ele>275.07</ele><time>2010-09-08T09:43:55Z</time></trkpt><trkpt lat="51.824740" lon="-2.101775"><ele>276.04</ele><time>2010-09-08T09:44:13Z</time></trkpt><trkpt lat="51.824746" lon="-2.101733"><ele>276.04</ele><time>2010-09-08T09:44:38Z</time></trkpt><trkpt lat="51.824774" lon="-2.101690"><ele>276.04</ele><time>2010-09-08T09:44:52Z</time></trkpt><trkpt lat="51.824873" lon="-2.101487"><ele>275.56</ele><time>2010-09-08T09:45:08Z</time></trkpt><trkpt lat="51.824956" lon="-2.101281"><ele>275.56</ele><time>2010-09-08T09:45:23Z</time></trkpt><trkpt lat="51.825057" lon="-2.101113"><ele>277.48</ele><time>2010-09-08T09:45:38Z</time></trkpt><trkpt lat="51.825141" lon="-2.100967"><ele>277.96</ele><time>2010-09-08T09:45:54Z</time></trkpt><trkpt lat="51.825222" lon="-2.100815"><ele>278.92</ele><time>2010-09-08T09:46:08Z</time></trkpt><trkpt lat="51.825303" lon="-2.100680"><ele>279.88</ele><time>2010-09-08T09:46:20Z</time></trkpt><trkpt lat="51.825338" lon="-2.100583"><ele>280.84</ele><time>2010-09-08T09:46:35Z</time></trkpt><trkpt lat="51.825385" lon="-2.100545"><ele>280.84</ele><time>2010-09-08T09:46:45Z</time></trkpt><trkpt lat="51.825416" lon="-2.100492"><ele>280.36</ele><time>2010-09-08T09:46:49Z</time></trkpt><trkpt lat="51.825443" lon="-2.100425"><ele>280.36</ele><time>2010-09-08T09:46:54Z</time></trkpt><trkpt lat="51.825503" lon="-2.100326"><ele>281.80</ele><time>2010-09-08T09:47:09Z</time></trkpt><trkpt lat="51.825515" lon="-2.100304"><ele>279.88</ele><time>2010-09-08T09:48:23Z</time></trkpt><trkpt lat="51.825592" lon="-2.100213"><ele>279.40</ele><time>2010-09-08T09:48:43Z</time></trkpt><trkpt lat="51.825665" lon="-2.100219"><ele>279.88</ele><time>2010-09-08T09:49:03Z</time></trkpt><trkpt lat="51.825694" lon="-2.100240"><ele>280.36</ele><time>2010-09-08T09:49:16Z</time></trkpt><trkpt lat="51.825781" lon="-2.100407"><ele>279.88</ele><time>2010-09-08T09:49:33Z</time></trkpt><trkpt lat="51.825831" lon="-2.100690"><ele>281.80</ele><time>2010-09-08T09:49:52Z</time></trkpt><trkpt lat="51.825894" lon="-2.100995"><ele>280.84</ele><time>2010-09-08T09:50:11Z</time></trkpt><trkpt lat="51.825970" lon="-2.101344"><ele>280.84</ele><time>2010-09-08T09:50:32Z</time></trkpt><trkpt lat="51.826036" lon="-2.101629"><ele>283.25</ele><time>2010-09-08T09:50:50Z</time></trkpt><trkpt lat="51.826115" lon="-2.101915"><ele>284.69</ele><time>2010-09-08T09:51:08Z</time></trkpt><trkpt lat="51.826180" lon="-2.102238"><ele>284.21</ele><time>2010-09-08T09:51:27Z</time></trkpt><trkpt lat="51.826258" lon="-2.102546"><ele>284.69</ele><time>2010-09-08T09:51:47Z</time></trkpt><trkpt lat="51.826311" lon="-2.102793"><ele>284.69</ele><time>2010-09-08T09:52:05Z</time></trkpt><trkpt lat="51.826378" lon="-2.103050"><ele>284.69</ele><time>2010-09-08T09:52:24Z</time></trkpt><trkpt lat="51.826444" lon="-2.103328"><ele>286.61</ele><time>2010-09-08T09:52:42Z</time></trkpt><trkpt lat="51.826506" lon="-2.103585"><ele>287.09</ele><time>2010-09-08T09:52:59Z</time></trkpt><trkpt lat="51.826575" lon="-2.103859"><ele>287.09</ele><time>2010-09-08T09:53:16Z</time></trkpt><trkpt lat="51.826609" lon="-2.104060"><ele>288.53</ele><time>2010-09-08T09:53:30Z</time></trkpt><trkpt lat="51.826645" lon="-2.104277"><ele>289.97</ele><time>2010-09-08T09:53:47Z</time></trkpt><trkpt lat="51.826708" lon="-2.104498"><ele>292.86</ele><time>2010-09-08T09:54:02Z</time></trkpt><trkpt lat="51.826758" lon="-2.104727"><ele>293.34</ele><time>2010-09-08T09:54:18Z</time></trkpt><trkpt lat="51.826842" lon="-2.105001"><ele>293.82</ele><time>2010-09-08T09:54:34Z</time></trkpt><trkpt lat="51.826937" lon="-2.105209"><ele>296.22</ele><time>2010-09-08T09:54:50Z</time></trkpt><trkpt lat="51.826948" lon="-2.105163"><ele>294.30</ele><time>2010-09-08T09:55:02Z</time></trkpt><trkpt lat="51.826940" lon="-2.105155"><ele>293.82</ele><time>2010-09-08T09:55:29Z</time></trkpt><trkpt lat="51.826957" lon="-2.105128"><ele>293.82</ele><time>2010-09-08T09:56:10Z</time></trkpt><trkpt lat="51.826934" lon="-2.105114"><ele>293.34</ele><time>2010-09-08T10:00:45Z</time></trkpt><trkpt lat="51.826936" lon="-2.105109"><ele>292.86</ele><time>2010-09-08T10:03:45Z</time></trkpt><trkpt lat="51.826934" lon="-2.105113"><ele>292.86</ele><time>2010-09-08T10:04:30Z</time></trkpt><trkpt lat="51.826933" lon="-2.105109"><ele>292.86</ele><time>2010-09-08T10:06:05Z</time></trkpt><trkpt lat="51.826934" lon="-2.105116"><ele>293.34</ele><time>2010-09-08T10:06:44Z</time></trkpt><trkpt lat="51.826945" lon="-2.105128"><ele>293.34</ele><time>2010-09-08T10:07:15Z</time></trkpt><trkpt lat="51.826955" lon="-2.105120"><ele>293.34</ele><time>2010-09-08T10:07:38Z</time></trkpt><trkpt lat="51.826950" lon="-2.105113"><ele>292.86</ele><time>2010-09-08T10:07:46Z</time></trkpt><trkpt lat="51.826891" lon="-2.105066"><ele>291.90</ele><time>2010-09-08T10:07:56Z</time></trkpt><trkpt lat="51.826955" lon="-2.105128"><ele>294.30</ele><time>2010-09-08T10:08:25Z</time></trkpt><trkpt lat="51.826954" lon="-2.105103"><ele>291.90</ele><time>2010-09-08T10:09:24Z</time></trkpt><trkpt lat="51.826961" lon="-2.105117"><ele>293.82</ele><time>2010-09-08T10:09:43Z</time></trkpt><trkpt lat="51.826952" lon="-2.105127"><ele>292.86</ele><time>2010-09-08T10:10:11Z</time></trkpt><trkpt lat="51.826949" lon="-2.105248"><ele>294.30</ele><time>2010-09-08T10:10:43Z</time></trkpt><trkpt lat="51.826954" lon="-2.105285"><ele>294.30</ele><time>2010-09-08T10:10:46Z</time></trkpt><trkpt lat="51.827003" lon="-2.105505"><ele>293.34</ele><time>2010-09-08T10:11:02Z</time></trkpt><trkpt lat="51.827032" lon="-2.105710"><ele>293.34</ele><time>2010-09-08T10:11:16Z</time></trkpt><trkpt lat="51.827066" lon="-2.105939"><ele>292.86</ele><time>2010-09-08T10:11:33Z</time></trkpt><trkpt lat="51.827069" lon="-2.106000"><ele>291.90</ele><time>2010-09-08T10:11:39Z</time></trkpt><trkpt lat="51.827032" lon="-2.106145"><ele>291.42</ele><time>2010-09-08T10:11:50Z</time></trkpt><trkpt lat="51.826946" lon="-2.106248"><ele>291.42</ele><time>2010-09-08T10:12:03Z</time></trkpt><trkpt lat="51.826862" lon="-2.106272"><ele>291.90</ele><time>2010-09-08T10:12:16Z</time></trkpt><trkpt lat="51.826859" lon="-2.106293"><ele>291.90</ele><time>2010-09-08T10:12:28Z</time></trkpt><trkpt lat="51.826847" lon="-2.106283"><ele>291.42</ele><time>2010-09-08T10:12:32Z</time></trkpt><trkpt lat="51.826698" lon="-2.106313"><ele>291.90</ele><time>2010-09-08T10:12:48Z</time></trkpt><trkpt lat="51.826549" lon="-2.106341"><ele>292.38</ele><time>2010-09-08T10:13:04Z</time></trkpt><trkpt lat="51.826407" lon="-2.106357"><ele>293.82</ele><time>2010-09-08T10:13:19Z</time></trkpt><trkpt lat="51.826266" lon="-2.106444"><ele>293.34</ele><time>2010-09-08T10:13:34Z</time></trkpt><trkpt lat="51.826115" lon="-2.106553"><ele>292.86</ele><time>2010-09-08T10:13:51Z</time></trkpt><trkpt lat="51.826033" lon="-2.106633"><ele>293.34</ele><time>2010-09-08T10:14:04Z</time></trkpt><trkpt lat="51.825925" lon="-2.106681"><ele>293.34</ele><time>2010-09-08T10:14:17Z</time></trkpt><trkpt lat="51.825857" lon="-2.106651"><ele>293.34</ele><time>2010-09-08T10:14:32Z</time></trkpt><trkpt lat="51.825744" lon="-2.106632"><ele>290.46</ele><time>2010-09-08T10:14:49Z</time></trkpt><trkpt lat="51.825672" lon="-2.106556"><ele>288.53</ele><time>2010-09-08T10:14:58Z</time></trkpt><trkpt lat="51.825537" lon="-2.106421"><ele>289.49</ele><time>2010-09-08T10:15:14Z</time></trkpt><trkpt lat="51.825381" lon="-2.106234"><ele>289.49</ele><time>2010-09-08T10:15:32Z</time></trkpt><trkpt lat="51.825260" lon="-2.106072"><ele>289.97</ele><time>2010-09-08T10:15:47Z</time></trkpt><trkpt lat="51.825080" lon="-2.105939"><ele>290.46</ele><time>2010-09-08T10:16:07Z</time></trkpt><trkpt lat="51.824937" lon="-2.105899"><ele>289.97</ele><time>2010-09-08T10:16:22Z</time></trkpt><trkpt lat="51.824753" lon="-2.105829"><ele>289.97</ele><time>2010-09-08T10:16:37Z</time></trkpt><trkpt lat="51.824627" lon="-2.105728"><ele>286.61</ele><time>2010-09-08T10:16:52Z</time></trkpt><trkpt lat="51.824531" lon="-2.105690"><ele>285.17</ele><time>2010-09-08T10:17:09Z</time></trkpt><trkpt lat="51.824531" lon="-2.105680"><ele>284.21</ele><time>2010-09-08T10:17:13Z</time></trkpt><trkpt lat="51.824428" lon="-2.105616"><ele>284.21</ele><time>2010-09-08T10:17:21Z</time></trkpt><trkpt lat="51.824287" lon="-2.105532"><ele>283.73</ele><time>2010-09-08T10:17:38Z</time></trkpt><trkpt lat="51.824206" lon="-2.105474"><ele>282.28</ele><time>2010-09-08T10:17:45Z</time></trkpt><trkpt lat="51.823994" lon="-2.105285"><ele>280.36</ele><time>2010-09-08T10:18:05Z</time></trkpt><trkpt lat="51.823806" lon="-2.105084"><ele>279.40</ele><time>2010-09-08T10:18:25Z</time></trkpt><trkpt lat="51.823673" lon="-2.104885"><ele>280.36</ele><time>2010-09-08T10:18:41Z</time></trkpt><trkpt lat="51.823570" lon="-2.104682"><ele>282.28</ele><time>2010-09-08T10:18:57Z</time></trkpt><trkpt lat="51.823476" lon="-2.104507"><ele>281.32</ele><time>2010-09-08T10:19:11Z</time></trkpt><trkpt lat="51.823449" lon="-2.104445"><ele>280.84</ele><time>2010-09-08T10:19:15Z</time></trkpt><trkpt lat="51.823355" lon="-2.104264"><ele>280.36</ele><time>2010-09-08T10:19:28Z</time></trkpt><trkpt lat="51.823288" lon="-2.104179"><ele>278.92</ele><time>2010-09-08T10:19:41Z</time></trkpt><trkpt lat="51.823230" lon="-2.104058"><ele>277.00</ele><time>2010-09-08T10:20:00Z</time></trkpt><trkpt lat="51.823128" lon="-2.103959"><ele>275.07</ele><time>2010-09-08T10:20:13Z</time></trkpt><trkpt lat="51.823060" lon="-2.103993"><ele>274.59</ele><time>2010-09-08T10:20:28Z</time></trkpt><trkpt lat="51.823088" lon="-2.104066"><ele>274.11</ele><time>2010-09-08T10:20:53Z</time></trkpt><trkpt lat="51.823087" lon="-2.104059"><ele>274.11</ele><time>2010-09-08T10:21:28Z</time></trkpt><trkpt lat="51.823100" lon="-2.104079"><ele>274.59</ele><time>2010-09-08T10:22:03Z</time></trkpt><trkpt lat="51.823100" lon="-2.104060"><ele>273.63</ele><time>2010-09-08T10:22:24Z</time></trkpt><trkpt lat="51.823063" lon="-2.104053"><ele>272.19</ele><time>2010-09-08T10:22:40Z</time></trkpt><trkpt lat="51.823052" lon="-2.104063"><ele>272.19</ele><time>2010-09-08T10:22:54Z</time></trkpt><trkpt lat="51.822983" lon="-2.104140"><ele>271.71</ele><time>2010-09-08T10:23:02Z</time></trkpt><trkpt lat="51.822857" lon="-2.104460"><ele>270.75</ele><time>2010-09-08T10:23:21Z</time></trkpt><trkpt lat="51.822689" lon="-2.104778"><ele>270.75</ele><time>2010-09-08T10:23:42Z</time></trkpt><trkpt lat="51.822535" lon="-2.104982"><ele>271.23</ele><time>2010-09-08T10:23:59Z</time></trkpt><trkpt lat="51.822352" lon="-2.105194"><ele>271.23</ele><time>2010-09-08T10:24:19Z</time></trkpt><trkpt lat="51.822209" lon="-2.105415"><ele>271.23</ele><time>2010-09-08T10:24:37Z</time></trkpt><trkpt lat="51.822069" lon="-2.105680"><ele>271.23</ele><time>2010-09-08T10:24:58Z</time></trkpt><trkpt lat="51.822020" lon="-2.105810"><ele>270.27</ele><time>2010-09-08T10:25:16Z</time></trkpt><trkpt lat="51.821924" lon="-2.106157"><ele>268.83</ele><time>2010-09-08T10:25:36Z</time></trkpt><trkpt lat="51.821908" lon="-2.106245"><ele>269.31</ele><time>2010-09-08T10:25:52Z</time></trkpt><trkpt lat="51.821887" lon="-2.106289"><ele>269.31</ele><time>2010-09-08T10:26:18Z</time></trkpt><trkpt lat="51.821874" lon="-2.106333"><ele>269.79</ele><time>2010-09-08T10:26:31Z</time></trkpt><trkpt lat="51.821866" lon="-2.106339"><ele>269.79</ele><time>2010-09-08T10:27:01Z</time></trkpt><trkpt lat="51.821898" lon="-2.106316"><ele>269.79</ele><time>2010-09-08T10:27:54Z</time></trkpt><trkpt lat="51.821873" lon="-2.106327"><ele>268.83</ele><time>2010-09-08T10:28:40Z</time></trkpt><trkpt lat="51.821813" lon="-2.106374"><ele>268.35</ele><time>2010-09-08T10:28:46Z</time></trkpt><trkpt lat="51.821544" lon="-2.106362"><ele>265.94</ele><time>2010-09-08T10:29:09Z</time></trkpt><trkpt lat="51.821251" lon="-2.106329"><ele>265.46</ele><time>2010-09-08T10:29:33Z</time></trkpt><trkpt lat="51.821037" lon="-2.106300"><ele>265.94</ele><time>2010-09-08T10:29:51Z</time></trkpt><trkpt lat="51.820963" lon="-2.106287"><ele>267.38</ele><time>2010-09-08T10:29:58Z</time></trkpt><trkpt lat="51.820764" lon="-2.106245"><ele>268.35</ele><time>2010-09-08T10:30:15Z</time></trkpt><trkpt lat="51.820635" lon="-2.106207"><ele>270.75</ele><time>2010-09-08T10:30:27Z</time></trkpt><trkpt lat="51.820438" lon="-2.106170"><ele>273.15</ele><time>2010-09-08T10:30:46Z</time></trkpt><trkpt lat="51.820256" lon="-2.106130"><ele>276.04</ele><time>2010-09-08T10:31:04Z</time></trkpt><trkpt lat="51.820126" lon="-2.106134"><ele>278.44</ele><time>2010-09-08T10:31:19Z</time></trkpt><trkpt lat="51.820112" lon="-2.106150"><ele>279.40</ele><time>2010-09-08T10:31:29Z</time></trkpt><trkpt lat="51.819885" lon="-2.106088"><ele>281.32</ele><time>2010-09-08T10:31:49Z</time></trkpt><trkpt lat="51.819772" lon="-2.106075"><ele>279.40</ele><time>2010-09-08T10:32:06Z</time></trkpt><trkpt lat="51.819754" lon="-2.106062"><ele>279.88</ele><time>2010-09-08T10:32:17Z</time></trkpt><trkpt lat="51.819604" lon="-2.106057"><ele>279.88</ele><time>2010-09-08T10:32:32Z</time></trkpt><trkpt lat="51.819403" lon="-2.106034"><ele>281.32</ele><time>2010-09-08T10:32:50Z</time></trkpt><trkpt lat="51.819172" lon="-2.105993"><ele>280.36</ele><time>2010-09-08T10:33:11Z</time></trkpt><trkpt lat="51.818945" lon="-2.105964"><ele>279.40</ele><time>2010-09-08T10:33:31Z</time></trkpt><trkpt lat="51.818767" lon="-2.105937"><ele>281.32</ele><time>2010-09-08T10:33:49Z</time></trkpt><trkpt lat="51.818769" lon="-2.105909"><ele>281.80</ele><time>2010-09-08T10:34:11Z</time></trkpt><trkpt lat="51.818750" lon="-2.105914"><ele>280.84</ele><time>2010-09-08T10:34:40Z</time></trkpt><trkpt lat="51.818650" lon="-2.105914"><ele>282.28</ele><time>2010-09-08T10:35:00Z</time></trkpt><trkpt lat="51.818404" lon="-2.105894"><ele>281.32</ele><time>2010-09-08T10:35:20Z</time></trkpt><trkpt lat="51.818386" lon="-2.105891"><ele>281.32</ele><time>2010-09-08T10:35:22Z</time></trkpt><trkpt lat="51.818390" lon="-2.105671"><ele>283.25</ele><time>2010-09-08T10:35:37Z</time></trkpt><trkpt lat="51.818385" lon="-2.105635"><ele>285.65</ele><time>2010-09-08T10:35:58Z</time></trkpt><trkpt lat="51.818381" lon="-2.105622"><ele>286.61</ele><time>2010-09-08T10:36:52Z</time></trkpt><trkpt lat="51.818336" lon="-2.105569"><ele>283.25</ele><time>2010-09-08T10:37:10Z</time></trkpt><trkpt lat="51.818337" lon="-2.105580"><ele>281.80</ele><time>2010-09-08T10:38:45Z</time></trkpt><trkpt lat="51.818274" lon="-2.105129"><ele>284.69</ele><time>2010-09-08T10:38:59Z</time></trkpt><trkpt lat="51.818270" lon="-2.105049"><ele>284.69</ele><time>2010-09-08T10:39:01Z</time></trkpt><trkpt lat="51.818251" lon="-2.104997"><ele>284.21</ele><time>2010-09-08T10:39:18Z</time></trkpt><trkpt lat="51.818208" lon="-2.104740"><ele>283.73</ele><time>2010-09-08T10:39:33Z</time></trkpt><trkpt lat="51.818186" lon="-2.104575"><ele>284.69</ele><time>2010-09-08T10:39:47Z</time></trkpt><trkpt lat="51.818137" lon="-2.104482"><ele>284.69</ele><time>2010-09-08T10:40:01Z</time></trkpt><trkpt lat="51.818065" lon="-2.104283"><ele>283.73</ele><time>2010-09-08T10:40:19Z</time></trkpt><trkpt lat="51.818052" lon="-2.104159"><ele>283.25</ele><time>2010-09-08T10:40:34Z</time></trkpt><trkpt lat="51.817951" lon="-2.103892"><ele>281.80</ele><time>2010-09-08T10:40:51Z</time></trkpt><trkpt lat="51.817921" lon="-2.103763"><ele>281.32</ele><time>2010-09-08T10:40:59Z</time></trkpt><trkpt lat="51.817860" lon="-2.103484"><ele>280.84</ele><time>2010-09-08T10:41:15Z</time></trkpt><trkpt lat="51.817752" lon="-2.103107"><ele>281.80</ele><time>2010-09-08T10:41:37Z</time></trkpt><trkpt lat="51.817636" lon="-2.102675"><ele>281.32</ele><time>2010-09-08T10:42:01Z</time></trkpt><trkpt lat="51.817519" lon="-2.102279"><ele>281.32</ele><time>2010-09-08T10:42:24Z</time></trkpt><trkpt lat="51.817412" lon="-2.101838"><ele>280.84</ele><time>2010-09-08T10:42:50Z</time></trkpt><trkpt lat="51.817307" lon="-2.101428"><ele>279.88</ele><time>2010-09-08T10:43:15Z</time></trkpt><trkpt lat="51.817213" lon="-2.101072"><ele>278.92</ele><time>2010-09-08T10:43:37Z</time></trkpt><trkpt lat="51.817136" lon="-2.100717"><ele>277.00</ele><time>2010-09-08T10:43:57Z</time></trkpt><trkpt lat="51.817055" lon="-2.100284"><ele>276.04</ele><time>2010-09-08T10:44:22Z</time></trkpt><trkpt lat="51.816980" lon="-2.099907"><ele>275.07</ele><time>2010-09-08T10:44:44Z</time></trkpt><trkpt lat="51.816911" lon="-2.099517"><ele>274.11</ele><time>2010-09-08T10:45:06Z</time></trkpt><trkpt lat="51.816841" lon="-2.099135"><ele>272.67</ele><time>2010-09-08T10:45:27Z</time></trkpt><trkpt lat="51.816765" lon="-2.098697"><ele>270.75</ele><time>2010-09-08T10:45:52Z</time></trkpt><trkpt lat="51.816692" lon="-2.098304"><ele>272.19</ele><time>2010-09-08T10:46:14Z</time></trkpt><trkpt lat="51.816633" lon="-2.097990"><ele>272.67</ele><time>2010-09-08T10:46:34Z</time></trkpt><trkpt lat="51.816589" lon="-2.097668"><ele>272.19</ele><time>2010-09-08T10:46:53Z</time></trkpt><trkpt lat="51.816528" lon="-2.097327"><ele>272.19</ele><time>2010-09-08T10:47:13Z</time></trkpt><trkpt lat="51.816471" lon="-2.097005"><ele>271.71</ele><time>2010-09-08T10:47:31Z</time></trkpt><trkpt lat="51.816431" lon="-2.096719"><ele>270.75</ele><time>2010-09-08T10:47:49Z</time></trkpt><trkpt lat="51.816425" lon="-2.096660"><ele>268.35</ele><time>2010-09-08T10:48:03Z</time></trkpt><trkpt lat="51.816443" lon="-2.096670"><ele>267.86</ele><time>2010-09-08T10:48:14Z</time></trkpt><trkpt lat="51.816398" lon="-2.096595"><ele>267.86</ele><time>2010-09-08T10:48:31Z</time></trkpt><trkpt lat="51.816391" lon="-2.096587"><ele>267.86</ele><time>2010-09-08T10:48:32Z</time></trkpt><trkpt lat="51.816225" lon="-2.096466"><ele>266.90</ele><time>2010-09-08T10:48:50Z</time></trkpt><trkpt lat="51.816018" lon="-2.096345"><ele>265.94</ele><time>2010-09-08T10:49:10Z</time></trkpt><trkpt lat="51.815832" lon="-2.096246"><ele>265.46</ele><time>2010-09-08T10:49:30Z</time></trkpt><trkpt lat="51.815705" lon="-2.096170"><ele>265.46</ele><time>2010-09-08T10:49:44Z</time></trkpt><trkpt lat="51.815487" lon="-2.096040"><ele>268.35</ele><time>2010-09-08T10:50:03Z</time></trkpt><trkpt lat="51.815296" lon="-2.095968"><ele>270.27</ele><time>2010-09-08T10:50:21Z</time></trkpt><trkpt lat="51.815186" lon="-2.095935"><ele>271.23</ele><time>2010-09-08T10:50:32Z</time></trkpt><trkpt lat="51.815115" lon="-2.095958"><ele>271.71</ele><time>2010-09-08T10:50:43Z</time></trkpt><trkpt lat="51.815108" lon="-2.095973"><ele>270.27</ele><time>2010-09-08T10:51:01Z</time></trkpt><trkpt lat="51.815104" lon="-2.095972"><ele>270.27</ele><time>2010-09-08T10:51:02Z</time></trkpt><trkpt lat="51.814892" lon="-2.095945"><ele>271.71</ele><time>2010-09-08T10:51:21Z</time></trkpt><trkpt lat="51.814757" lon="-2.095945"><ele>273.15</ele><time>2010-09-08T10:51:35Z</time></trkpt><trkpt lat="51.814567" lon="-2.095890"><ele>276.04</ele><time>2010-09-08T10:51:57Z</time></trkpt><trkpt lat="51.814345" lon="-2.095787"><ele>279.88</ele><time>2010-09-08T10:52:17Z</time></trkpt><trkpt lat="51.814107" lon="-2.095630"><ele>279.88</ele><time>2010-09-08T10:52:38Z</time></trkpt><trkpt lat="51.813877" lon="-2.095464"><ele>277.00</ele><time>2010-09-08T10:53:00Z</time></trkpt><trkpt lat="51.813636" lon="-2.095190"><ele>273.63</ele><time>2010-09-08T10:53:25Z</time></trkpt><trkpt lat="51.813455" lon="-2.094953"><ele>272.67</ele><time>2010-09-08T10:53:45Z</time></trkpt><trkpt lat="51.813264" lon="-2.094616"><ele>271.71</ele><time>2010-09-08T10:54:10Z</time></trkpt><trkpt lat="51.813285" lon="-2.094290"><ele>269.31</ele><time>2010-09-08T10:54:30Z</time></trkpt><trkpt lat="51.813345" lon="-2.093989"><ele>268.35</ele><time>2010-09-08T10:54:46Z</time></trkpt><trkpt lat="51.813380" lon="-2.093599"><ele>266.42</ele><time>2010-09-08T10:55:07Z</time></trkpt><trkpt lat="51.813382" lon="-2.093251"><ele>264.98</ele><time>2010-09-08T10:55:26Z</time></trkpt><trkpt lat="51.813399" lon="-2.092807"><ele>263.06</ele><time>2010-09-08T10:55:49Z</time></trkpt><trkpt lat="51.813413" lon="-2.092413"><ele>263.06</ele><time>2010-09-08T10:56:10Z</time></trkpt><trkpt lat="51.813432" lon="-2.092087"><ele>262.58</ele><time>2010-09-08T10:56:29Z</time></trkpt><trkpt lat="51.813459" lon="-2.091713"><ele>262.10</ele><time>2010-09-08T10:56:49Z</time></trkpt><trkpt lat="51.813494" lon="-2.091294"><ele>261.14</ele><time>2010-09-08T10:57:12Z</time></trkpt><trkpt lat="51.813499" lon="-2.091128"><ele>260.17</ele><time>2010-09-08T10:57:26Z</time></trkpt><trkpt lat="51.813496" lon="-2.090803"><ele>260.17</ele><time>2010-09-08T10:57:45Z</time></trkpt><trkpt lat="51.813505" lon="-2.090472"><ele>260.17</ele><time>2010-09-08T10:58:05Z</time></trkpt><trkpt lat="51.813513" lon="-2.090383"><ele>259.21</ele><time>2010-09-08T10:58:21Z</time></trkpt><trkpt lat="51.813457" lon="-2.090287"><ele>258.25</ele><time>2010-09-08T10:58:30Z</time></trkpt><trkpt lat="51.813266" lon="-2.090163"><ele>259.69</ele><time>2010-09-08T10:58:48Z</time></trkpt><trkpt lat="51.813227" lon="-2.090164"><ele>257.77</ele><time>2010-09-08T10:59:02Z</time></trkpt><trkpt lat="51.813226" lon="-2.090167"><ele>256.81</ele><time>2010-09-08T10:59:26Z</time></trkpt><trkpt lat="51.813238" lon="-2.090167"><ele>255.37</ele><time>2010-09-08T10:59:52Z</time></trkpt><trkpt lat="51.813262" lon="-2.089993"><ele>253.93</ele><time>2010-09-08T11:00:04Z</time></trkpt><trkpt lat="51.813259" lon="-2.089747"><ele>252.00</ele><time>2010-09-08T11:00:17Z</time></trkpt><trkpt lat="51.813263" lon="-2.089697"><ele>251.52</ele><time>2010-09-08T11:00:20Z</time></trkpt><trkpt lat="51.813265" lon="-2.089341"><ele>249.60</ele><time>2010-09-08T11:00:37Z</time></trkpt><trkpt lat="51.813107" lon="-2.089274"><ele>250.08</ele><time>2010-09-08T11:00:51Z</time></trkpt><trkpt lat="51.812881" lon="-2.089330"><ele>252.48</ele><time>2010-09-08T11:01:09Z</time></trkpt><trkpt lat="51.812830" lon="-2.089352"><ele>254.41</ele><time>2010-09-08T11:01:23Z</time></trkpt><trkpt lat="51.812798" lon="-2.089333"><ele>255.37</ele><time>2010-09-08T11:01:43Z</time></trkpt><trkpt lat="51.812807" lon="-2.089327"><ele>255.37</ele><time>2010-09-08T11:01:59Z</time></trkpt><trkpt lat="51.812942" lon="-2.089294"><ele>255.37</ele><time>2010-09-08T11:02:12Z</time></trkpt><trkpt lat="51.813010" lon="-2.089275"><ele>256.81</ele><time>2010-09-08T11:02:27Z</time></trkpt><trkpt lat="51.813122" lon="-2.089251"><ele>257.77</ele><time>2010-09-08T11:02:41Z</time></trkpt><trkpt lat="51.813272" lon="-2.089164"><ele>260.17</ele><time>2010-09-08T11:02:57Z</time></trkpt><trkpt lat="51.813381" lon="-2.088962"><ele>260.17</ele><time>2010-09-08T11:03:13Z</time></trkpt><trkpt lat="51.813526" lon="-2.088781"><ele>258.25</ele><time>2010-09-08T11:03:30Z</time></trkpt><trkpt lat="51.813619" lon="-2.088591"><ele>258.25</ele><time>2010-09-08T11:03:47Z</time></trkpt><trkpt lat="51.813676" lon="-2.088367"><ele>256.81</ele><time>2010-09-08T11:04:04Z</time></trkpt><trkpt lat="51.813689" lon="-2.088264"><ele>256.81</ele><time>2010-09-08T11:04:24Z</time></trkpt><trkpt lat="51.813692" lon="-2.088232"><ele>256.33</ele><time>2010-09-08T11:04:54Z</time></trkpt><trkpt lat="51.813696" lon="-2.088220"><ele>256.33</ele><time>2010-09-08T11:05:13Z</time></trkpt><trkpt lat="51.813797" lon="-2.088226"><ele>259.69</ele><time>2010-09-08T11:05:30Z</time></trkpt><trkpt lat="51.813877" lon="-2.088066"><ele>261.62</ele><time>2010-09-08T11:05:46Z</time></trkpt><trkpt lat="51.813921" lon="-2.087939"><ele>261.14</ele><time>2010-09-08T11:06:01Z</time></trkpt><trkpt lat="51.813973" lon="-2.087698"><ele>262.10</ele><time>2010-09-08T11:06:17Z</time></trkpt><trkpt lat="51.813995" lon="-2.087374"><ele>261.14</ele><time>2010-09-08T11:06:36Z</time></trkpt><trkpt lat="51.814006" lon="-2.087049"><ele>260.65</ele><time>2010-09-08T11:06:55Z</time></trkpt><trkpt lat="51.814046" lon="-2.086719"><ele>258.73</ele><time>2010-09-08T11:07:15Z</time></trkpt><trkpt lat="51.814053" lon="-2.086607"><ele>258.73</ele><time>2010-09-08T11:07:30Z</time></trkpt><trkpt lat="51.814033" lon="-2.086508"><ele>259.21</ele><time>2010-09-08T11:07:41Z</time></trkpt><trkpt lat="51.814028" lon="-2.086290"><ele>261.14</ele><time>2010-09-08T11:07:55Z</time></trkpt><trkpt lat="51.814030" lon="-2.086272"><ele>261.14</ele><time>2010-09-08T11:07:56Z</time></trkpt><trkpt lat="51.814027" lon="-2.086239"><ele>261.14</ele><time>2010-09-08T11:07:58Z</time></trkpt><trkpt lat="51.814029" lon="-2.085970"><ele>263.06</ele><time>2010-09-08T11:08:16Z</time></trkpt><trkpt lat="51.814026" lon="-2.085713"><ele>262.10</ele><time>2010-09-08T11:08:33Z</time></trkpt><trkpt lat="51.814032" lon="-2.085571"><ele>262.10</ele><time>2010-09-08T11:08:46Z</time></trkpt><trkpt lat="51.814048" lon="-2.085542"><ele>262.10</ele><time>2010-09-08T11:09:07Z</time></trkpt><trkpt lat="51.814051" lon="-2.085520"><ele>262.10</ele><time>2010-09-08T11:09:49Z</time></trkpt><trkpt lat="51.814045" lon="-2.085516"><ele>261.14</ele><time>2010-09-08T11:10:20Z</time></trkpt><trkpt lat="51.814045" lon="-2.085530"><ele>260.65</ele><time>2010-09-08T11:10:40Z</time></trkpt><trkpt lat="51.814088" lon="-2.085611"><ele>261.62</ele><time>2010-09-08T11:11:31Z</time></trkpt><trkpt lat="51.814157" lon="-2.085555"><ele>249.12</ele><time>2010-09-08T11:12:30Z</time></trkpt><trkpt lat="51.814285" lon="-2.085490"><ele>245.75</ele><time>2010-09-08T11:13:41Z</time></trkpt><trkpt lat="51.814203" lon="-2.085498"><ele>241.43</ele><time>2010-09-08T11:14:34Z</time></trkpt><trkpt lat="51.814141" lon="-2.085545"><ele>246.23</ele><time>2010-09-08T11:15:09Z</time></trkpt><trkpt lat="51.814006" lon="-2.085490"><ele>256.33</ele><time>2010-09-08T11:15:27Z</time></trkpt><trkpt lat="51.813991" lon="-2.085477"><ele>258.25</ele><time>2010-09-08T11:15:31Z</time></trkpt><trkpt lat="51.813806" lon="-2.085385"><ele>260.17</ele><time>2010-09-08T11:15:50Z</time></trkpt><trkpt lat="51.813807" lon="-2.085410"><ele>260.17</ele><time>2010-09-08T11:16:14Z</time></trkpt><trkpt lat="51.813826" lon="-2.085442"><ele>258.73</ele><time>2010-09-08T11:16:27Z</time></trkpt><trkpt lat="51.813957" lon="-2.085526"><ele>260.17</ele><time>2010-09-08T11:16:43Z</time></trkpt><trkpt lat="51.813996" lon="-2.085589"><ele>260.65</ele><time>2010-09-08T11:16:49Z</time></trkpt><trkpt lat="51.813988" lon="-2.085650"><ele>259.69</ele><time>2010-09-08T11:17:06Z</time></trkpt><trkpt lat="51.813990" lon="-2.085657"><ele>258.25</ele><time>2010-09-08T11:17:20Z</time></trkpt><trkpt lat="51.813987" lon="-2.085901"><ele>255.37</ele><time>2010-09-08T11:17:36Z</time></trkpt><trkpt lat="51.813962" lon="-2.086151"><ele>255.85</ele><time>2010-09-08T11:17:50Z</time></trkpt><trkpt lat="51.813961" lon="-2.086199"><ele>257.29</ele><time>2010-09-08T11:17:53Z</time></trkpt><trkpt lat="51.813984" lon="-2.086389"><ele>260.17</ele><time>2010-09-08T11:18:03Z</time></trkpt><trkpt lat="51.813976" lon="-2.086551"><ele>260.65</ele><time>2010-09-08T11:18:13Z</time></trkpt><trkpt lat="51.814008" lon="-2.086712"><ele>259.69</ele><time>2010-09-08T11:18:20Z</time></trkpt><trkpt lat="51.814194" lon="-2.086771"><ele>259.69</ele><time>2010-09-08T11:18:38Z</time></trkpt><trkpt lat="51.814422" lon="-2.086867"><ele>260.65</ele><time>2010-09-08T11:18:58Z</time></trkpt><trkpt lat="51.814558" lon="-2.086878"><ele>262.10</ele><time>2010-09-08T11:19:13Z</time></trkpt><trkpt lat="51.814567" lon="-2.086884"><ele>262.58</ele><time>2010-09-08T11:19:36Z</time></trkpt><trkpt lat="51.814635" lon="-2.086873"><ele>262.10</ele><time>2010-09-08T11:19:52Z</time></trkpt><trkpt lat="51.814832" lon="-2.086717"><ele>262.10</ele><time>2010-09-08T11:20:10Z</time></trkpt><trkpt lat="51.815063" lon="-2.086455"><ele>261.62</ele><time>2010-09-08T11:20:31Z</time></trkpt><trkpt lat="51.815289" lon="-2.086220"><ele>260.65</ele><time>2010-09-08T11:20:52Z</time></trkpt><trkpt lat="51.815432" lon="-2.086090"><ele>257.77</ele><time>2010-09-08T11:21:06Z</time></trkpt><trkpt lat="51.815578" lon="-2.085959"><ele>256.33</ele><time>2010-09-08T11:21:21Z</time></trkpt><trkpt lat="51.815638" lon="-2.085892"><ele>254.89</ele><time>2010-09-08T11:21:31Z</time></trkpt><trkpt lat="51.815678" lon="-2.085878"><ele>254.41</ele><time>2010-09-08T11:21:39Z</time></trkpt><trkpt lat="51.815927" lon="-2.085564"><ele>252.48</ele><time>2010-09-08T11:22:03Z</time></trkpt><trkpt lat="51.816062" lon="-2.085439"><ele>252.96</ele><time>2010-09-08T11:22:21Z</time></trkpt><trkpt lat="51.816139" lon="-2.085405"><ele>252.48</ele><time>2010-09-08T11:22:35Z</time></trkpt><trkpt lat="51.816148" lon="-2.085386"><ele>251.04</ele><time>2010-09-08T11:22:51Z</time></trkpt><trkpt lat="51.816196" lon="-2.085370"><ele>248.16</ele><time>2010-09-08T11:23:18Z</time></trkpt><trkpt lat="51.816257" lon="-2.085337"><ele>248.16</ele><time>2010-09-08T11:23:33Z</time></trkpt><trkpt lat="51.816358" lon="-2.085243"><ele>249.60</ele><time>2010-09-08T11:23:43Z</time></trkpt><trkpt lat="51.816396" lon="-2.085219"><ele>249.60</ele><time>2010-09-08T11:23:46Z</time></trkpt><trkpt lat="51.816544" lon="-2.085145"><ele>250.08</ele><time>2010-09-08T11:24:00Z</time></trkpt><trkpt lat="51.816705" lon="-2.085161"><ele>250.08</ele><time>2010-09-08T11:24:14Z</time></trkpt><trkpt lat="51.816896" lon="-2.085148"><ele>242.87</ele><time>2010-09-08T11:24:29Z</time></trkpt><trkpt lat="51.816942" lon="-2.085044"><ele>240.95</ele><time>2010-09-08T11:24:36Z</time></trkpt><trkpt lat="51.816986" lon="-2.084921"><ele>240.95</ele><time>2010-09-08T11:24:43Z</time></trkpt><trkpt lat="51.817054" lon="-2.084676"><ele>239.51</ele><time>2010-09-08T11:24:56Z</time></trkpt><trkpt lat="51.817084" lon="-2.084476"><ele>238.54</ele><time>2010-09-08T11:25:06Z</time></trkpt><trkpt lat="51.817096" lon="-2.084406"><ele>239.51</ele><time>2010-09-08T11:25:10Z</time></trkpt><trkpt lat="51.817121" lon="-2.084348"><ele>239.51</ele><time>2010-09-08T11:25:14Z</time></trkpt><trkpt lat="51.817105" lon="-2.084054"><ele>237.10</ele><time>2010-09-08T11:25:27Z</time></trkpt><trkpt lat="51.817111" lon="-2.083920"><ele>234.22</ele><time>2010-09-08T11:25:40Z</time></trkpt><trkpt lat="51.817110" lon="-2.083870"><ele>235.66</ele><time>2010-09-08T11:25:53Z</time></trkpt><trkpt lat="51.817149" lon="-2.083877"><ele>236.14</ele><time>2010-09-08T11:26:02Z</time></trkpt><trkpt lat="51.817111" lon="-2.083857"><ele>234.22</ele><time>2010-09-08T11:26:08Z</time></trkpt><trkpt lat="51.817134" lon="-2.083834"><ele>234.22</ele><time>2010-09-08T11:26:15Z</time></trkpt><trkpt lat="51.817163" lon="-2.083844"><ele>233.74</ele><time>2010-09-08T11:26:18Z</time></trkpt><trkpt lat="51.817246" lon="-2.083959"><ele>232.78</ele><time>2010-09-08T11:26:27Z</time></trkpt><trkpt lat="51.817297" lon="-2.084055"><ele>229.89</ele><time>2010-09-08T11:26:44Z</time></trkpt><trkpt lat="51.817300" lon="-2.084067"><ele>228.93</ele><time>2010-09-08T11:26:51Z</time></trkpt><trkpt lat="51.817414" lon="-2.084354"><ele>223.16</ele><time>2010-09-08T11:27:09Z</time></trkpt><trkpt lat="51.817427" lon="-2.084396"><ele>222.68</ele><time>2010-09-08T11:27:12Z</time></trkpt><trkpt lat="51.817446" lon="-2.084432"><ele>221.24</ele><time>2010-09-08T11:27:15Z</time></trkpt><trkpt lat="51.817484" lon="-2.084540"><ele>220.76</ele><time>2010-09-08T11:27:22Z</time></trkpt><trkpt lat="51.817614" lon="-2.084778"><ele>222.20</ele><time>2010-09-08T11:27:38Z</time></trkpt><trkpt lat="51.817663" lon="-2.084885"><ele>223.64</ele><time>2010-09-08T11:27:45Z</time></trkpt><trkpt lat="51.817729" lon="-2.084989"><ele>222.68</ele><time>2010-09-08T11:28:01Z</time></trkpt><trkpt lat="51.817851" lon="-2.085048"><ele>224.61</ele><time>2010-09-08T11:28:17Z</time></trkpt><trkpt lat="51.817884" lon="-2.085042"><ele>224.12</ele><time>2010-09-08T11:28:22Z</time></trkpt><trkpt lat="51.817899" lon="-2.085047"><ele>224.12</ele><time>2010-09-08T11:28:25Z</time></trkpt><trkpt lat="51.818018" lon="-2.085075"><ele>224.61</ele><time>2010-09-08T11:28:42Z</time></trkpt><trkpt lat="51.818036" lon="-2.085099"><ele>225.57</ele><time>2010-09-08T11:29:00Z</time></trkpt><trkpt lat="51.818179" lon="-2.084995"><ele>227.49</ele><time>2010-09-08T11:29:16Z</time></trkpt><trkpt lat="51.818308" lon="-2.084964"><ele>228.93</ele><time>2010-09-08T11:29:30Z</time></trkpt><trkpt lat="51.818427" lon="-2.084927"><ele>229.89</ele><time>2010-09-08T11:29:45Z</time></trkpt><trkpt lat="51.818549" lon="-2.084872"><ele>231.81</ele><time>2010-09-08T11:30:01Z</time></trkpt><trkpt lat="51.818636" lon="-2.084840"><ele>231.81</ele><time>2010-09-08T11:30:13Z</time></trkpt><trkpt lat="51.818758" lon="-2.084803"><ele>232.30</ele><time>2010-09-08T11:30:26Z</time></trkpt><trkpt lat="51.818836" lon="-2.084777"><ele>234.22</ele><time>2010-09-08T11:30:39Z</time></trkpt><trkpt lat="51.818902" lon="-2.084735"><ele>236.14</ele><time>2010-09-08T11:30:50Z</time></trkpt><trkpt lat="51.818929" lon="-2.084737"><ele>236.62</ele><time>2010-09-08T11:30:58Z</time></trkpt><trkpt lat="51.819014" lon="-2.084728"><ele>237.58</ele><time>2010-09-08T11:31:12Z</time></trkpt><trkpt lat="51.819113" lon="-2.084641"><ele>238.06</ele><time>2010-09-08T11:31:26Z</time></trkpt><trkpt lat="51.819218" lon="-2.084615"><ele>239.02</ele><time>2010-09-08T11:31:41Z</time></trkpt><trkpt lat="51.819253" lon="-2.084599"><ele>239.51</ele><time>2010-09-08T11:31:46Z</time></trkpt><trkpt lat="51.819338" lon="-2.084590"><ele>240.47</ele><time>2010-09-08T11:31:59Z</time></trkpt><trkpt lat="51.819474" lon="-2.084563"><ele>241.43</ele><time>2010-09-08T11:32:16Z</time></trkpt><trkpt lat="51.819564" lon="-2.084547"><ele>242.39</ele><time>2010-09-08T11:32:29Z</time></trkpt><trkpt lat="51.819661" lon="-2.084496"><ele>242.39</ele><time>2010-09-08T11:32:41Z</time></trkpt><trkpt lat="51.819769" lon="-2.084480"><ele>241.91</ele><time>2010-09-08T11:32:54Z</time></trkpt><trkpt lat="51.819888" lon="-2.084487"><ele>241.43</ele><time>2010-09-08T11:33:07Z</time></trkpt><trkpt lat="51.819993" lon="-2.084503"><ele>243.35</ele><time>2010-09-08T11:33:19Z</time></trkpt><trkpt lat="51.820021" lon="-2.084463"><ele>242.39</ele><time>2010-09-08T11:33:34Z</time></trkpt><trkpt lat="51.820116" lon="-2.084346"><ele>245.27</ele><time>2010-09-08T11:33:50Z</time></trkpt><trkpt lat="51.820216" lon="-2.084203"><ele>245.27</ele><time>2010-09-08T11:34:06Z</time></trkpt><trkpt lat="51.820241" lon="-2.084141"><ele>244.79</ele><time>2010-09-08T11:34:11Z</time></trkpt><trkpt lat="51.820374" lon="-2.084047"><ele>245.27</ele><time>2010-09-08T11:34:28Z</time></trkpt><trkpt lat="51.820423" lon="-2.084036"><ele>245.27</ele><time>2010-09-08T11:34:35Z</time></trkpt><trkpt lat="51.820510" lon="-2.084041"><ele>243.83</ele><time>2010-09-08T11:34:48Z</time></trkpt><trkpt lat="51.820514" lon="-2.084085"><ele>242.39</ele><time>2010-09-08T11:35:00Z</time></trkpt><trkpt lat="51.820627" lon="-2.084019"><ele>245.27</ele><time>2010-09-08T11:35:13Z</time></trkpt><trkpt lat="51.820738" lon="-2.083967"><ele>248.16</ele><time>2010-09-08T11:35:28Z</time></trkpt><trkpt lat="51.820830" lon="-2.083978"><ele>250.56</ele><time>2010-09-08T11:35:40Z</time></trkpt><trkpt lat="51.820891" lon="-2.083953"><ele>250.08</ele><time>2010-09-08T11:35:46Z</time></trkpt><trkpt lat="51.821013" lon="-2.083855"><ele>248.16</ele><time>2010-09-08T11:35:59Z</time></trkpt><trkpt lat="51.821108" lon="-2.083765"><ele>246.72</ele><time>2010-09-08T11:36:12Z</time></trkpt><trkpt lat="51.821196" lon="-2.083711"><ele>247.68</ele><time>2010-09-08T11:36:24Z</time></trkpt><trkpt lat="51.821313" lon="-2.083668"><ele>246.72</ele><time>2010-09-08T11:36:38Z</time></trkpt><trkpt lat="51.821468" lon="-2.083648"><ele>246.23</ele><time>2010-09-08T11:36:54Z</time></trkpt><trkpt lat="51.821593" lon="-2.083596"><ele>246.72</ele><time>2010-09-08T11:37:09Z</time></trkpt><trkpt lat="51.821621" lon="-2.083590"><ele>245.75</ele><time>2010-09-08T11:37:22Z</time></trkpt><trkpt lat="51.821678" lon="-2.083618"><ele>247.20</ele><time>2010-09-08T11:37:37Z</time></trkpt><trkpt lat="51.821726" lon="-2.083598"><ele>247.20</ele><time>2010-09-08T11:37:43Z</time></trkpt><trkpt lat="51.821759" lon="-2.083588"><ele>247.68</ele><time>2010-09-08T11:37:47Z</time></trkpt><trkpt lat="51.821864" lon="-2.083490"><ele>248.16</ele><time>2010-09-08T11:38:03Z</time></trkpt><trkpt lat="51.821926" lon="-2.083499"><ele>247.68</ele><time>2010-09-08T11:38:12Z</time></trkpt><trkpt lat="51.822034" lon="-2.083620"><ele>247.68</ele><time>2010-09-08T11:38:26Z</time></trkpt><trkpt lat="51.822057" lon="-2.083693"><ele>247.68</ele><time>2010-09-08T11:38:31Z</time></trkpt><trkpt lat="51.822093" lon="-2.083850"><ele>248.16</ele><time>2010-09-08T11:38:42Z</time></trkpt><trkpt lat="51.822061" lon="-2.084008"><ele>250.08</ele><time>2010-09-08T11:38:55Z</time></trkpt><trkpt lat="51.822056" lon="-2.084103"><ele>251.04</ele><time>2010-09-08T11:39:01Z</time></trkpt><trkpt lat="51.822007" lon="-2.084260"><ele>252.96</ele><time>2010-09-08T11:39:16Z</time></trkpt><trkpt lat="51.821996" lon="-2.084290"><ele>253.44</ele><time>2010-09-08T11:39:20Z</time></trkpt><trkpt lat="51.821988" lon="-2.084495"><ele>253.44</ele><time>2010-09-08T11:39:35Z</time></trkpt><trkpt lat="51.821980" lon="-2.084493"><ele>252.48</ele><time>2010-09-08T11:39:41Z</time></trkpt></trkseg></trk></gpx>